Detall de PIREP

Printer-friendly versionPDF version

[2015/08/24 15:19:00]
Flight IATA:CT3128
Pilot Number:042
Company ICAO:CAT
Aircraft Type:A320/E
PAX:98
Departing Airport: LEVC
Destination Airport: LEZG
Alternate Airport:LEMD
Online: VATSIM
Route:MANDY R29 CMA
Flight Level:F280
No Slew and time accel
No pause
Crash detect
Detect pilot in Cockpit between each 30 and 45 minutes
15:19 Zero fuel Weight: 127789 Lbs, Fuel Weight: 5335 Lbs
15:19 VATSIM:LEVC 241500Z 27015KT 210V330 9999 FEW030 32/12 Q1011 NOSIG
15:19 VATSIM:LEZG 241500Z 32008KT 270V010 9999 FEW067 26/06 Q1013
15:28 Parking Brakes off
15:32 Take-off
15:32 Take off Weight: 95959 Lbs
15:32 Wind: 271º @ 015 Knots Heading: 293º
15:32 POS N39º 29´ 13´´ W000º 28´ 31´´
15:32 Flaps:3 at 153 Knots
15:33 Gear Up: 159 Knots
15:33 Flaps:2 at 199 Knots
15:33 Flaps:0 at 195 Knots
15:40 TOC
15:40 Fuel Weight: 3532 Lb
15:46 TOD
15:46 Fuel Weight: 2884 Lb
15:47 Wind:287º@052 Knots Heading: 342º Ground Speed: 452 Knots Altitude 27680 ft
15:55 Flaps:1 at 170 Knots
16:01 Gear Down: 161 Knots
16:01 Flaps:3 at 160 Knots
16:02 Wind:312º@010 Knots Heading: 288º Ground Speed: 151 Knots Altitude 2739 ft
16:02 Flaps:4 at 140 Knots
16:02 Flaps:5 at 133 Knots
16:05 TouchDown:Rate -295 ft/min Speed: 106 Knots
16:05 VATSIM:LEZG 241530Z 33011KT 280V010 9999 FEW070 26/06 Q1014
16:05 Land
16:05 Wind:321º@011 Knots
16:05 Heading: 297º
16:05 Flight Duration: 00:33
16:05 Landing Weight: 93070 Lbs
16:05 POS N41º 39´ 33´´ W001º 01´ 03´´
16:08 Parking brakes on
16:08 Block to Block Duration: 00:40
16:08 Final Fuel: 1992 Lbls
16:08 Spent Fuel: 3342 Lbls
16:08 Flight Length: 166 NM
16:08 TOD Land Length: 81 NM

Exportar CSV

Powered by Drupal - Modified by Danger4k